KPSP/PSP METAR and TAF weather

Enter ICAO airport designator
Station Type Date Time Source
KPSP METAR 2021/10/22 18:53 UTC NOAA

KPSP 221853Z 12005KT 10SM CLR 28/01 A2994 RMK AO2 SLP137 T02830006 $


Station Type Date Time Source
KPSP Decoded METAR 2021/10/22 18:53 UTC NOAA

PALM SPRINGS REGIONAL AIRPORT , CA, United States (KPSP) 33-50N 116-30W 135M
Oct 22, 2021 - 02:53 PM EDT / 2021.10.22 1853 UTC
Wind: from the ESE (120 degrees) at 6 MPH (5 KT):0
Visibility: 10 mile(s):0
Sky conditions: clear
Temperature: 82.9 F (28.3 C)
Dew Point: 33.1 F (0.6 C)
Relative Humidity: 16%
Pressure (altimeter): 29.94 in. Hg (1013 hPa)
ob: KPSP 221853Z 12005KT 10SM CLR 28/01 A2994 RMK AO2 SLP137 T02830006
cycle: 19

Station Type Date Time Source
KPSP TAF 2021/10/22 18:24 UTC NOAA

TAF KPSP 221722Z 2218/2318 33006KT P6SM SCT200
FM230000 33011KT P6SM SCT250
FM230600 32005KT P6SM SCT250

Example: see airport list